createdAt,value
2023-05-11T00:00:17.066Z,98.4
2023-05-11T00:01:16.812Z,98.5
2023-05-11T00:02:16.951Z,98.5
2023-05-11T00:03:17.929Z,98.4
2023-05-11T00:04:16.747Z,98.5
2023-05-11T00:05:17.380Z,98.7
2023-05-11T00:06:16.961Z,98.7
2023-05-11T00:07:17.547Z,98.7
2023-05-11T00:08:17.606Z,98.8
2023-05-11T00:09:17.132Z,98.9
2023-05-11T00:10:17.166Z,98.9
2023-05-11T00:11:16.876Z,99.0
2023-05-11T00:12:17.115Z,99.1
2023-05-11T00:13:16.683Z,99.1
2023-05-11T00:14:17.269Z,99.0
2023-05-11T00:15:16.862Z,99.0
2023-05-11T00:16:17.620Z,99.0
2023-05-11T00:17:17.229Z,98.9
2023-05-11T00:18:16.852Z,98.9
2023-05-11T00:19:17.438Z,98.8
2023-05-11T00:20:17.668Z,98.8
2023-05-11T00:21:17.425Z,98.5
2023-05-11T00:22:16.848Z,98.7
2023-05-11T00:23:17.452Z,98.7
2023-05-11T00:24:17.003Z,98.6
2023-05-11T00:25:16.545Z,98.5
2023-05-11T00:26:17.142Z,98.6
2023-05-11T00:27:16.717Z,98.5
2023-05-11T00:28:17.307Z,98.2
2023-05-11T00:29:16.834Z,98.0
2023-05-11T00:30:18.029Z,98.0
2023-05-11T00:31:16.748Z,98.1
2023-05-11T00:32:16.631Z,98.1
2023-05-11T00:33:17.174Z,98.0
2023-05-11T00:34:16.744Z,98.1
2023-05-11T00:35:17.337Z,98.1
2023-05-11T00:36:16.874Z,98.0
2023-05-11T00:37:17.439Z,98.1
2023-05-11T00:38:16.966Z,98.0
2023-05-11T00:39:16.537Z,98.0
2023-05-11T00:40:17.563Z,97.9
2023-05-11T00:41:17.241Z,98.0
2023-05-11T00:42:17.303Z,98.1
2023-05-11T00:43:16.866Z,98.2
2023-05-11T00:44:17.477Z,98.3
2023-05-11T00:45:17.046Z,98.4
2023-05-11T00:46:16.732Z,98.4
2023-05-11T00:47:17.333Z,98.2
2023-05-11T00:48:16.904Z,98.1
2023-05-11T00:49:17.622Z,98.2
2023-05-11T00:50:17.778Z,98.2
2023-05-11T00:51:17.492Z,98.1
2023-05-11T00:52:16.620Z,98.2
2023-05-11T00:53:17.182Z,98.3
2023-05-11T00:54:16.734Z,98.4
2023-05-11T00:55:17.302Z,98.4
2023-05-11T00:56:16.866Z,98.3
2023-05-11T00:57:17.456Z,98.4
2023-05-11T00:58:17.033Z,98.3
2023-05-11T00:59:16.591Z,98.3
2023-05-11T01:00:17.873Z,98.5
2023-05-11T01:01:16.894Z,98.6
2023-05-11T01:02:17.578Z,98.7
2023-05-11T01:03:17.276Z,98.6
2023-05-11T01:04:16.836Z,98.6
2023-05-11T01:05:17.399Z,98.6
2023-05-11T01:06:16.953Z,98.7
2023-05-11T01:07:17.536Z,98.8
2023-05-11T01:08:17.097Z,98.9
2023-05-11T01:09:16.649Z,99.1
2023-05-11T01:10:17.705Z,99.2
2023-05-11T01:11:17.453Z,99.2
2023-05-11T01:12:17.430Z,99.2
2023-05-11T01:13:16.957Z,99.2
2023-05-11T01:14:16.558Z,99.3
2023-05-11T01:15:17.139Z,99.3
2023-05-11T01:16:16.795Z,99.4
2023-05-11T01:17:17.330Z,99.5
2023-05-11T01:18:16.991Z,99.5
2023-05-11T01:19:16.604Z,99.4
2023-05-11T01:20:17.771Z,99.5
2023-05-11T01:21:17.473Z,99.5
2023-05-11T01:22:16.627Z,99.4
2023-05-11T01:23:17.174Z,99.4
2023-05-11T01:24:16.763Z,99.5
2023-05-11T01:25:17.321Z,99.5
2023-05-11T01:26:16.877Z,99.6
2023-05-11T01:27:17.446Z,99.7
2023-05-11T01:28:16.995Z,99.7
2023-05-11T01:29:16.523Z,99.8
2023-05-11T01:30:17.562Z,99.8
2023-05-11T01:31:17.196Z,99.8
2023-05-11T01:32:16.736Z,99.8
2023-05-11T01:33:17.444Z,99.8
2023-05-11T01:34:17.056Z,99.7
2023-05-11T01:35:16.612Z,99.7
2023-05-11T01:36:17.168Z,99.8
2023-05-11T01:37:16.756Z,99.7
2023-05-11T01:38:17.295Z,99.7
2023-05-11T01:39:16.880Z,99.6
2023-05-11T01:40:17.907Z,99.7
2023-05-11T01:41:16.625Z,99.8
2023-05-11T01:42:17.177Z,99.9
2023-05-11T01:43:16.714Z,99.9
2023-05-11T01:44:17.289Z,99.9
2023-05-11T01:45:16.856Z,99.8
2023-05-11T01:46:17.462Z,99.8
2023-05-11T01:47:17.059Z,100.0
2023-05-11T01:48:16.646Z,100.0
2023-05-11T01:49:17.280Z,100.0
2023-05-11T01:50:17.532Z,100.0
2023-05-11T01:51:17.225Z,100.0
2023-05-11T01:52:17.250Z,100.0
2023-05-11T01:53:16.820Z,99.9
2023-05-11T01:54:17.408Z,99.9
2023-05-11T01:55:16.959Z,99.9
2023-05-11T01:56:17.493Z,99.8
2023-05-11T01:57:17.035Z,99.7
2023-05-11T01:58:16.553Z,99.7
2023-05-11T01:59:17.101Z,99.6
2023-05-11T02:00:17.117Z,99.6
2023-05-11T02:01:16.946Z,99.6
2023-05-11T02:02:17.151Z,99.7
2023-05-11T02:03:16.978Z,99.6
2023-05-11T02:04:16.582Z,99.6
2023-05-11T02:05:17.163Z,99.7
2023-05-11T02:06:16.696Z,99.6
2023-05-11T02:07:17.277Z,99.6
2023-05-11T02:08:16.854Z,99.7
2023-05-11T02:09:17.370Z,99.6
2023-05-11T02:10:17.299Z,99.6
2023-05-11T02:11:17.001Z,99.7
2023-05-11T02:12:16.559Z,99.5
2023-05-11T02:13:17.110Z,99.7
2023-05-11T02:14:16.666Z,99.6
2023-05-11T02:15:17.257Z,99.6
2023-05-11T02:16:16.895Z,99.5
2023-05-11T02:17:17.455Z,99.3
2023-05-11T02:18:17.074Z,99.3
2023-05-11T02:19:16.668Z,99.5
2023-05-11T02:20:17.578Z,99.5
2023-05-11T02:21:17.203Z,99.6
2023-05-11T02:22:16.633Z,99.6
2023-05-11T02:23:17.176Z,99.7
2023-05-11T02:24:16.709Z,99.7
2023-05-11T02:25:17.267Z,99.7
2023-05-11T02:26:16.975Z,99.8
2023-05-11T02:27:16.553Z,99.8
2023-05-11T02:28:17.136Z,99.9
2023-05-11T02:29:16.689Z,99.9
2023-05-11T02:30:17.769Z,99.9
2023-05-11T02:31:17.612Z,99.9
2023-05-11T02:32:17.425Z,100.0
2023-05-11T02:33:16.989Z,99.9
2023-05-11T02:34:16.552Z,100.0
2023-05-11T02:35:17.107Z,99.9
2023-05-11T02:36:16.671Z,99.9
2023-05-11T02:37:17.204Z,99.9
2023-05-11T02:38:16.734Z,99.8
2023-05-11T02:39:17.303Z,99.8
2023-05-11T02:40:17.521Z,99.8
2023-05-11T02:41:17.196Z,99.5
2023-05-11T02:42:17.270Z,99.5
2023-05-11T02:43:16.798Z,99.5
2023-05-11T02:44:17.430Z,99.5
2023-05-11T02:45:17.038Z,99.3
2023-05-11T02:46:16.696Z,99.4
2023-05-11T02:47:17.316Z,99.3
2023-05-11T02:48:16.946Z,99.4
2023-05-11T02:49:17.517Z,99.4
2023-05-11T02:50:17.506Z,99.5
2023-05-11T02:51:17.219Z,99.5
2023-05-11T02:52:16.713Z,99.6
2023-05-11T02:53:17.275Z,99.6
2023-05-11T02:54:16.841Z,99.7
2023-05-11T02:55:17.460Z,99.9
2023-05-11T02:56:17.078Z,99.9
2023-05-11T02:57:16.696Z,99.6
2023-05-11T02:58:17.321Z,99.5
2023-05-11T02:59:16.890Z,99.5
2023-05-11T03:00:18.480Z,99.4
2023-05-11T03:01:17.369Z,99.7
2023-05-11T03:02:17.816Z,99.6
2023-05-11T03:03:16.683Z,99.4
2023-05-11T03:04:17.317Z,99.3
2023-05-11T03:05:16.931Z,99.4
2023-05-11T03:06:16.577Z,99.3
2023-05-11T03:07:17.153Z,99.3
2023-05-11T03:08:16.735Z,99.3
2023-05-11T03:09:17.278Z,99.3
2023-05-11T03:10:17.351Z,99.2
2023-05-11T03:11:17.075Z,99.0
2023-05-11T03:12:17.357Z,99.4
2023-05-11T03:13:16.911Z,99.4
2023-05-11T03:14:17.443Z,99.6
2023-05-11T03:15:17.009Z,99.5
2023-05-11T03:16:20.471Z,99.5
2023-05-11T03:17:16.745Z,99.6
2023-05-11T03:18:17.397Z,99.5
2023-05-11T03:19:16.980Z,99.6
2023-05-11T03:20:17.348Z,99.5
2023-05-11T03:21:17.184Z,99.5
2023-05-11T03:22:16.861Z,99.4
2023-05-11T03:23:17.451Z,99.4
2023-05-11T03:24:16.998Z,99.5
2023-05-11T03:25:16.593Z,99.4
2023-05-11T03:26:17.150Z,99.4
2023-05-11T03:27:16.709Z,99.5
2023-05-11T03:28:17.288Z,99.5
2023-05-11T03:29:16.849Z,99.5
2023-05-11T03:30:17.863Z,99.7
2023-05-11T03:31:16.580Z,99.8
2023-05-11T03:32:16.968Z,99.7
2023-05-11T03:33:16.647Z,99.8
2023-05-11T03:34:17.203Z,99.8
2023-05-11T03:35:16.811Z,99.8
2023-05-11T03:36:17.385Z,99.9
2023-05-11T03:37:16.942Z,99.9
2023-05-11T03:38:17.546Z,100.0
2023-05-11T03:39:17.097Z,100.0
2023-05-11T03:40:17.078Z,100.0
2023-05-11T03:41:16.801Z,100.0
2023-05-11T03:42:16.842Z,100.0
2023-05-11T03:43:17.382Z,100.0
2023-05-11T03:44:16.999Z,99.9
2023-05-11T03:45:16.598Z,99.9
2023-05-11T03:46:17.214Z,99.9
2023-05-11T03:47:16.802Z,99.8
2023-05-11T03:48:17.344Z,99.8
2023-05-11T03:49:16.911Z,99.8
2023-05-11T03:50:17.855Z,99.8
2023-05-11T03:51:16.514Z,99.7
2023-05-11T03:52:17.502Z,99.7
2023-05-11T03:53:17.106Z,99.7
2023-05-11T03:54:16.657Z,99.6
2023-05-11T03:55:17.247Z,99.6
2023-05-11T03:56:16.812Z,99.6
2023-05-11T03:57:17.356Z,99.5
2023-05-11T03:58:16.899Z,99.5
2023-05-11T03:59:17.479Z,99.4
2023-05-11T04:00:17.848Z,99.5
2023-05-11T04:01:16.511Z,99.6
2023-05-11T04:02:17.432Z,99.6
2023-05-11T04:03:17.196Z,99.5
2023-05-11T04:04:16.833Z,99.5
2023-05-11T04:05:17.418Z,99.5
2023-05-11T04:06:16.994Z,99.5
2023-05-11T04:07:16.542Z,99.6
2023-05-11T04:08:17.144Z,99.5
2023-05-11T04:09:16.719Z,99.5
2023-05-11T04:10:17.582Z,99.6
2023-05-11T04:11:17.248Z,99.6
2023-05-11T04:12:16.731Z,99.5
2023-05-11T04:13:17.295Z,99.6
2023-05-11T04:14:16.871Z,99.5
2023-05-11T04:15:17.412Z,99.6
2023-05-11T04:16:17.119Z,99.5
2023-05-11T04:17:16.698Z,99.7
2023-05-11T04:18:17.381Z,99.8
2023-05-11T04:19:16.935Z,99.6
2023-05-11T04:20:17.950Z,99.5
2023-05-11T04:21:16.732Z,99.5
2023-05-11T04:22:16.901Z,99.5
2023-05-11T04:23:17.495Z,99.4
2023-05-11T04:24:17.044Z,99.4
2023-05-11T04:25:16.615Z,99.5
2023-05-11T04:26:17.185Z,99.6
2023-05-11T04:27:16.775Z,99.8
2023-05-11T04:28:17.288Z,99.9
2023-05-11T04:29:16.800Z,99.7
2023-05-11T04:30:18.213Z,99.7
2023-05-11T04:31:17.091Z,99.7
2023-05-11T04:32:16.541Z,99.8
2023-05-11T04:33:17.099Z,99.9
2023-05-11T04:34:16.676Z,99.9
2023-05-11T04:35:17.257Z,99.7
2023-05-11T04:36:16.817Z,99.7
2023-05-11T04:37:17.363Z,99.6
2023-05-11T04:38:16.910Z,99.6
2023-05-11T04:39:17.524Z,99.6
2023-05-11T04:40:17.762Z,99.6
2023-05-11T04:41:17.491Z,99.7
2023-05-11T04:42:16.682Z,99.8
2023-05-11T04:43:17.242Z,99.8
2023-05-11T04:44:16.784Z,99.8
2023-05-11T04:45:17.323Z,99.7
2023-05-11T04:46:16.937Z,99.6
2023-05-11T04:47:17.513Z,99.6
2023-05-11T04:48:21.015Z,99.6
2023-05-11T04:49:16.729Z,99.6
2023-05-11T04:50:17.928Z,99.6
2023-05-11T04:51:16.572Z,99.7
2023-05-11T04:52:16.729Z,99.5
2023-05-11T04:53:17.259Z,99.5
2023-05-11T04:54:16.797Z,99.6
2023-05-11T04:55:17.370Z,99.7
2023-05-11T04:56:16.920Z,99.7
2023-05-11T04:57:17.474Z,99.7
2023-05-11T04:58:17.067Z,99.5
2023-05-11T05:00:17.847Z,99.5
2023-05-11T05:01:16.829Z,99.5
2023-05-11T05:02:17.479Z,99.5
2023-05-11T05:03:17.156Z,99.4
2023-05-11T05:04:17.164Z,99.2
2023-05-11T05:05:16.767Z,99.4
2023-05-11T05:06:17.315Z,99.4
2023-05-11T05:07:16.851Z,99.4
2023-05-11T05:08:17.441Z,99.5
2023-05-11T05:09:17.006Z,99.5
2023-05-11T05:10:16.947Z,99.3
2023-05-11T05:11:16.720Z,99.1
2023-05-11T05:12:16.951Z,99.1
2023-05-11T05:13:17.497Z,99.0
2023-05-11T05:14:17.083Z,99.0
2023-05-11T05:15:16.646Z,99.0
2023-05-11T05:16:17.288Z,98.8
2023-05-11T05:17:16.877Z,98.9
2023-05-11T05:18:17.576Z,98.9
2023-05-11T05:19:17.116Z,99.0
2023-05-11T05:20:17.080Z,99.1
2023-05-11T05:21:16.734Z,99.1
2023-05-11T05:22:17.280Z,99.1
2023-05-11T05:23:16.807Z,99.1
2023-05-11T05:24:17.418Z,99.4
2023-05-11T05:25:17.073Z,99.4
2023-05-11T05:26:16.677Z,99.4
2023-05-11T05:27:17.251Z,99.4
2023-05-11T05:28:16.837Z,99.6
2023-05-11T05:29:17.392Z,99.6
2023-05-11T05:30:17.321Z,99.5
2023-05-11T05:31:17.243Z,99.3
2023-05-11T05:32:17.002Z,99.3
2023-05-11T05:33:16.552Z,99.2
2023-05-11T05:34:17.115Z,99.4
2023-05-11T05:35:16.658Z,99.5
2023-05-11T05:36:17.217Z,99.5
2023-05-11T05:37:16.769Z,99.4
2023-05-11T05:38:17.323Z,99.1
2023-05-11T05:39:16.935Z,99.0
2023-05-11T05:40:17.944Z,98.8
2023-05-11T05:41:16.684Z,99.1
2023-05-11T05:42:16.652Z,99.0
2023-05-11T05:43:17.213Z,98.8
2023-05-11T05:44:16.807Z,98.7
2023-05-11T05:45:17.394Z,98.5
2023-05-11T05:46:17.082Z,98.6
2023-05-11T05:47:16.633Z,98.7
2023-05-11T05:48:17.250Z,98.9
2023-05-11T05:49:16.804Z,98.9
2023-05-11T05:50:17.862Z,98.9
2023-05-11T05:51:16.661Z,99.1
2023-05-11T05:52:16.526Z,99.2
2023-05-11T05:53:17.101Z,99.4
2023-05-11T05:54:16.681Z,99.4
2023-05-11T05:55:17.236Z,99.1
2023-05-11T05:56:16.835Z,99.1
2023-05-11T05:57:17.394Z,98.7
2023-05-11T05:58:16.965Z,98.9
2023-05-11T05:59:17.517Z,98.9
2023-05-11T06:00:17.532Z,98.8
2023-05-11T06:01:17.237Z,98.5
2023-05-11T06:02:17.299Z,98.5
2023-05-11T06:03:17.010Z,98.7
2023-05-11T06:04:16.784Z,99.0
2023-05-11T06:05:17.346Z,99.0
2023-05-11T06:06:16.923Z,99.2
2023-05-11T06:07:17.491Z,99.4
2023-05-11T06:08:17.106Z,99.3
2023-05-11T06:09:16.705Z,99.3
2023-05-11T06:10:17.818Z,99.3
2023-05-11T06:11:17.434Z,99.2
2023-05-11T06:12:16.639Z,98.8
2023-05-11T06:13:17.178Z,99.1
2023-05-11T06:14:16.740Z,98.7
2023-05-11T06:15:17.307Z,98.9
2023-05-11T06:16:16.933Z,99.1
2023-05-11T06:17:17.491Z,99.3
2023-05-11T06:18:17.075Z,99.0
2023-05-11T06:19:16.616Z,99.1
2023-05-11T06:20:17.845Z,98.9
2023-05-11T06:21:16.593Z,98.6
2023-05-11T06:22:16.625Z,98.6
2023-05-11T06:23:17.202Z,98.6
2023-05-11T06:24:16.747Z,98.6
2023-05-11T06:25:17.339Z,98.6
2023-05-11T06:26:16.882Z,98.6
2023-05-11T06:27:18.652Z,98.6
2023-05-11T06:28:17.207Z,98.4
2023-05-11T06:29:16.765Z,98.3
2023-05-11T06:30:17.873Z,98.3
2023-05-11T06:31:16.728Z,98.4
2023-05-11T06:32:16.688Z,98.4
2023-05-11T06:33:17.279Z,98.3
2023-05-11T06:34:16.821Z,97.9
2023-05-11T06:35:17.399Z,97.9
2023-05-11T06:36:16.961Z,98.0
2023-05-11T06:37:17.510Z,98.2
2023-05-11T06:38:17.079Z,97.8
2023-05-11T06:39:16.653Z,97.8
2023-05-11T06:40:17.792Z,97.8
2023-05-11T06:41:17.473Z,98.1
2023-05-11T06:42:16.561Z,98.0
2023-05-11T06:43:17.145Z,97.9
2023-05-11T06:44:16.709Z,98.0
2023-05-11T06:45:17.401Z,97.8
2023-05-11T06:46:16.962Z,98.2
2023-05-11T06:47:16.507Z,98.2
2023-05-11T06:48:17.102Z,98.2
2023-05-11T06:49:16.661Z,98.2
2023-05-11T06:50:20.220Z,98.4
2023-05-11T06:51:16.734Z,97.9
2023-05-11T06:52:16.943Z,97.9
2023-05-11T06:53:17.860Z,98.1
2023-05-11T06:54:17.514Z,97.9
2023-05-11T06:55:17.078Z,97.9
2023-05-11T06:56:16.607Z,97.9
2023-05-11T06:57:17.190Z,97.8
2023-05-11T06:58:16.710Z,97.9
2023-05-11T06:59:17.274Z,98.0
2023-05-11T07:00:17.327Z,98.0
2023-05-11T07:01:17.158Z,97.9
2023-05-11T07:02:17.278Z,98.1
2023-05-11T07:03:16.947Z,97.9
2023-05-11T07:04:16.646Z,97.6
2023-05-11T07:05:17.310Z,97.3
2023-05-11T07:06:16.914Z,97.2
2023-05-11T07:07:17.510Z,97.7
2023-05-11T07:08:17.128Z,97.8
2023-05-11T07:09:16.719Z,97.7
2023-05-11T07:10:17.659Z,97.7
2023-05-11T07:11:17.336Z,97.8
2023-05-11T07:12:17.331Z,97.9
2023-05-11T07:13:16.872Z,97.7
2023-05-11T07:14:17.464Z,97.8
2023-05-11T07:15:17.039Z,97.8
2023-05-11T07:16:16.636Z,97.1
2023-05-11T07:17:17.307Z,97.4
2023-05-11T07:18:16.885Z,97.6
2023-05-11T07:19:17.445Z,97.5
2023-05-11T07:20:17.362Z,97.2
2023-05-11T07:21:17.112Z,97.3
2023-05-11T07:22:16.629Z,97.4
2023-05-11T07:23:17.204Z,97.6
2023-05-11T07:24:16.744Z,97.2
2023-05-11T07:25:17.311Z,97.1
2023-05-11T07:26:16.907Z,97.0
2023-05-11T07:27:17.460Z,97.0
2023-05-11T07:28:17.005Z,96.8
2023-05-11T07:29:16.582Z,96.8
2023-05-11T07:30:19.087Z,96.5
2023-05-11T07:31:16.777Z,96.3
2023-05-11T07:32:16.570Z,96.4
2023-05-11T07:33:17.182Z,96.9
2023-05-11T07:34:16.749Z,96.9
2023-05-11T07:35:17.299Z,96.5
2023-05-11T07:36:16.839Z,96.9
2023-05-11T07:37:17.444Z,96.9
2023-05-11T07:38:17.012Z,96.9
2023-05-11T07:39:16.595Z,96.7
2023-05-11T07:40:17.906Z,96.9
2023-05-11T07:41:16.712Z,96.9
2023-05-11T07:42:17.513Z,96.3
2023-05-11T07:43:17.116Z,96.6
2023-05-11T07:44:16.662Z,96.7
2023-05-11T07:45:17.226Z,96.7
2023-05-11T07:46:16.879Z,96.6
2023-05-11T07:47:17.485Z,96.7
2023-05-11T07:48:17.215Z,96.2
2023-05-11T07:49:31.260Z,96.5
2023-05-11T07:50:17.526Z,96.5
2023-05-11T07:51:17.120Z,96.7
2023-05-11T07:52:16.689Z,96.6
2023-05-11T07:53:17.342Z,96.4
2023-05-11T07:54:20.218Z,96.5
2023-05-11T07:55:16.703Z,96.6
2023-05-11T07:56:17.348Z,96.5
2023-05-11T07:57:16.954Z,96.5
2023-05-11T07:58:16.549Z,96.5
2023-05-11T07:59:17.091Z,96.6
2023-05-11T08:00:16.911Z,96.5
2023-05-11T08:01:16.746Z,96.5
2023-05-11T08:02:17.198Z,96.7
2023-05-11T08:03:16.827Z,96.7
2023-05-11T08:04:17.417Z,96.7
2023-05-11T08:05:17.300Z,96.5
2023-05-11T08:06:17.230Z,96.4
2023-05-11T08:07:16.847Z,96.5
2023-05-11T08:08:17.468Z,96.5
2023-05-11T08:09:17.048Z,96.5
2023-05-11T08:10:16.626Z,96.4
2023-05-11T08:11:17.231Z,96.6
2023-05-11T08:12:17.098Z,96.6
2023-05-11T08:13:17.604Z,96.4
2023-05-11T08:14:17.429Z,96.1
2023-05-11T08:15:17.639Z,96.2
2023-05-11T08:16:17.506Z,96.3
2023-05-11T08:17:17.068Z,96.0
2023-05-11T08:18:16.654Z,96.2
2023-05-11T08:19:17.211Z,96.9
2023-05-11T08:20:16.783Z,97.4
2023-05-11T08:21:17.342Z,97.6
2023-05-11T08:22:17.124Z,97.7
2023-05-11T08:23:16.712Z,97.8
2023-05-11T08:24:17.304Z,98.1
2023-05-11T08:25:17.430Z,98.0
2023-05-11T08:26:17.222Z,97.7
2023-05-11T08:27:16.816Z,97.7
2023-05-11T08:28:17.450Z,97.4
2023-05-11T08:29:18.021Z,97.2
2023-05-11T08:30:16.616Z,97.1
2023-05-11T08:31:17.222Z,97.1
2023-05-11T08:32:17.273Z,96.8
2023-05-11T08:33:36.374Z,97.0
2023-05-11T08:34:20.568Z,97.3
2023-05-11T08:35:17.841Z,97.4
2023-05-11T08:36:16.598Z,97.9
2023-05-11T08:37:17.172Z,98.0
2023-05-11T08:38:16.763Z,98.0
2023-05-11T08:39:45.763Z,97.7
2023-05-11T08:40:16.867Z,97.6
2023-05-11T08:41:17.407Z,97.8
2023-05-11T08:42:17.394Z,97.7
2023-05-11T08:43:17.066Z,97.8
2023-05-11T08:44:16.603Z,98.0
2023-05-11T08:45:17.723Z,97.8
2023-05-11T08:46:17.573Z,98.0
2023-05-11T08:47:23.538Z,97.7
2023-05-11T08:48:17.515Z,97.7
2023-05-11T08:49:17.071Z,97.6
2023-05-11T08:50:16.641Z,97.3
2023-05-11T08:51:17.210Z,97.3
2023-05-11T08:52:16.939Z,96.9
2023-05-11T08:53:17.489Z,96.6
2023-05-11T08:54:17.051Z,96.9
2023-05-11T08:55:17.303Z,96.9
2023-05-11T08:56:16.998Z,97.1
2023-05-11T08:57:16.695Z,97.5
2023-05-11T08:58:17.341Z,97.5
2023-05-11T08:59:16.909Z,97.5
2023-05-11T09:00:17.470Z,97.3
2023-05-11T09:01:17.109Z,97.2
2023-05-11T09:02:17.032Z,97.1
2023-05-11T09:03:16.612Z,96.5
2023-05-11T09:04:17.190Z,96.6
2023-05-11T09:05:17.072Z,96.8
2023-05-11T09:06:16.813Z,96.7
2023-05-11T09:07:17.403Z,97.1
2023-05-11T09:08:16.976Z,97.0
2023-05-11T09:09:16.576Z,97.0
2023-05-11T09:10:17.134Z,96.9
2023-05-11T09:11:16.824Z,96.6
2023-05-11T09:12:16.613Z,96.1
2023-05-11T09:13:17.261Z,97.2
2023-05-11T09:14:16.845Z,97.2
2023-05-11T09:15:17.604Z,97.4
2023-05-11T09:16:36.553Z,97.5
2023-05-11T09:17:16.823Z,97.8
2023-05-11T09:18:17.410Z,97.8
2023-05-11T09:19:17.086Z,97.6
2023-05-11T09:20:17.054Z,97.9
2023-05-11T09:21:16.786Z,97.9
2023-05-11T09:22:17.128Z,97.7
2023-05-11T09:23:16.748Z,97.6
2023-05-11T09:24:17.336Z,97.5
2023-05-11T09:25:17.326Z,97.5
2023-05-11T09:26:16.985Z,97.3
2023-05-11T09:27:21.725Z,97.0
2023-05-11T09:28:25.864Z,97.4
2023-05-11T09:29:16.593Z,98.2
2023-05-11T09:30:23.040Z,98.1
2023-05-11T09:31:17.079Z,98.3
2023-05-11T09:32:16.547Z,98.5
2023-05-11T09:33:17.168Z,98.4
2023-05-11T09:34:16.777Z,98.2
2023-05-11T09:35:17.960Z,97.9
2023-05-11T09:36:16.759Z,98.0
2023-05-11T09:37:17.351Z,97.5
2023-05-11T09:38:16.932Z,97.7
2023-05-11T09:39:34.966Z,97.8
2023-05-11T09:40:33.845Z,98.0
2023-05-11T09:41:16.838Z,98.0
2023-05-11T09:42:16.864Z,98.3
2023-05-11T09:43:17.521Z,98.2
2023-05-11T09:44:17.115Z,98.3
2023-05-11T09:45:17.092Z,98.5
2023-05-11T09:46:16.855Z,98.4
2023-05-11T09:47:17.528Z,98.6
2023-05-11T09:48:17.197Z,98.6
2023-05-11T09:49:16.878Z,98.6
2023-05-11T09:50:18.605Z,98.9
2023-05-11T09:51:17.450Z,98.9
2023-05-11T09:52:16.736Z,98.9
2023-05-11T09:53:17.362Z,98.8
2023-05-11T09:54:17.067Z,98.8
2023-05-11T09:55:17.098Z,98.5
2023-05-11T09:56:16.987Z,98.6
2023-05-11T09:57:16.594Z,98.8
2023-05-11T09:58:17.155Z,98.6
2023-05-11T09:59:16.742Z,98.5
2023-05-11T10:00:17.424Z,98.0
2023-05-11T10:01:17.067Z,98.0
2023-05-11T10:02:16.877Z,97.8
2023-05-11T10:03:17.684Z,97.7
2023-05-11T10:04:24.318Z,97.7
2023-05-11T10:05:17.282Z,97.6
2023-05-11T10:06:20.611Z,97.1
2023-05-11T10:07:17.213Z,97.4
2023-05-11T10:08:16.756Z,97.5
2023-05-11T10:09:17.352Z,97.7
2023-05-11T10:10:16.947Z,97.4
2023-05-11T10:11:17.552Z,97.2
2023-05-11T10:12:17.451Z,97.6
2023-05-11T10:13:17.054Z,97.8
2023-05-11T10:14:16.745Z,97.7
2023-05-11T10:15:17.841Z,97.8
2023-05-11T10:16:17.560Z,97.6
2023-05-11T10:17:17.180Z,97.7
2023-05-11T10:18:20.561Z,97.8
2023-05-11T10:19:17.303Z,97.7
2023-05-11T10:20:17.165Z,97.5
2023-05-11T10:21:16.764Z,97.2
2023-05-11T10:22:17.224Z,97.5
2023-05-11T10:23:16.900Z,97.7
2023-05-11T10:24:20.730Z,97.6
2023-05-11T10:25:17.323Z,97.7
2023-05-11T10:26:16.857Z,97.5
2023-05-11T10:27:17.425Z,97.3
2023-05-11T10:28:16.990Z,97.3
2023-05-11T10:29:16.583Z,97.0
2023-05-11T10:30:17.512Z,97.1
2023-05-11T10:31:17.382Z,96.8
2023-05-11T10:32:16.548Z,96.2
2023-05-11T10:33:17.114Z,96.3
2023-05-11T10:34:16.784Z,95.8
2023-05-11T10:35:17.512Z,96.2
2023-05-11T10:36:19.892Z,96.2
2023-05-11T10:37:16.555Z,96.4
2023-05-11T10:38:17.153Z,96.5
2023-05-11T10:39:16.704Z,96.6
2023-05-11T10:40:17.578Z,96.6
2023-05-11T10:41:17.369Z,96.5
2023-05-11T10:42:16.671Z,95.5
2023-05-11T10:43:17.295Z,96.0
2023-05-11T10:44:16.915Z,96.2
2023-05-11T10:45:17.517Z,96.7
2023-05-11T10:46:17.234Z,97.0
2023-05-11T10:47:16.889Z,97.7
2023-05-11T10:48:17.515Z,97.7
2023-05-11T10:49:17.063Z,97.8
2023-05-11T10:50:16.939Z,97.5
2023-05-11T10:51:16.684Z,97.0
2023-05-11T10:52:16.935Z,97.0
2023-05-11T10:53:17.512Z,96.8
2023-05-11T10:54:17.124Z,96.6
2023-05-11T10:55:17.228Z,96.5
2023-05-11T10:56:16.965Z,96.7
2023-05-11T10:57:17.512Z,97.5
2023-05-11T10:58:17.097Z,97.4
2023-05-11T10:59:16.706Z,97.3
2023-05-11T11:00:17.904Z,97.2
2023-05-11T11:01:16.713Z,97.5
2023-05-11T11:02:17.160Z,97.5
2023-05-11T11:03:16.703Z,97.6
2023-05-11T11:04:17.283Z,97.9
2023-05-11T11:05:17.141Z,97.9
2023-05-11T11:06:17.001Z,97.9
2023-05-11T11:07:16.576Z,98.1
2023-05-11T11:08:17.152Z,98.0
2023-05-11T11:09:16.866Z,97.9
2023-05-11T11:10:17.982Z,97.7
2023-05-11T11:11:16.678Z,97.5
2023-05-11T11:12:16.961Z,97.4
2023-05-11T11:13:16.552Z,97.1
2023-05-11T11:14:17.148Z,96.8
2023-05-11T11:15:17.270Z,97.0
2023-05-11T11:16:17.114Z,97.0
2023-05-11T11:17:17.106Z,96.6
2023-05-11T11:18:16.828Z,96.7
2023-05-11T11:19:17.428Z,96.7
2023-05-11T11:20:17.015Z,96.5
2023-05-11T11:21:16.559Z,96.6
2023-05-11T11:22:16.912Z,96.5
2023-05-11T11:23:17.567Z,96.4
2023-05-11T11:24:17.153Z,96.2
2023-05-11T11:25:17.135Z,96.2
2023-05-11T11:26:16.998Z,96.3
2023-05-11T11:27:16.570Z,96.4
2023-05-11T11:28:17.161Z,96.4
2023-05-11T11:29:16.789Z,96.3
2023-05-11T11:30:17.408Z,96.3
2023-05-11T11:31:17.020Z,95.9
2023-05-11T11:32:17.561Z,96.0
2023-05-11T11:33:17.205Z,95.5
2023-05-11T11:34:16.767Z,96.6
2023-05-11T11:35:17.847Z,97.0
2023-05-11T11:36:17.489Z,97.2
2023-05-11T11:37:17.119Z,97.1
2023-05-11T11:38:16.705Z,97.1
2023-05-11T11:39:17.242Z,96.8
2023-05-11T11:40:16.966Z,97.1
2023-05-11T11:41:16.570Z,96.9
2023-05-11T11:42:17.307Z,96.7
2023-05-11T11:43:16.937Z,96.7
2023-05-11T11:44:17.525Z,96.3
2023-05-11T11:45:17.482Z,96.6
2023-05-11T11:46:17.310Z,96.6
2023-05-11T11:47:16.891Z,96.4
2023-05-11T11:48:17.472Z,96.4
2023-05-11T11:49:17.058Z,96.5
2023-05-11T11:50:16.623Z,96.4
2023-05-11T11:51:17.338Z,96.4
2023-05-11T11:52:17.261Z,96.3
2023-05-11T11:53:16.866Z,96.1
2023-05-11T11:54:17.458Z,96.3
2023-05-11T11:55:17.447Z,96.3
2023-05-11T11:56:17.208Z,96.4
2023-05-11T11:57:16.768Z,96.9
2023-05-11T11:58:17.387Z,96.9
2023-05-11T11:59:16.981Z,96.6
2023-05-11T12:00:16.582Z,96.7
2023-05-11T12:01:17.203Z,96.7
2023-05-11T12:02:16.902Z,96.6
2023-05-11T12:03:17.634Z,96.4
2023-05-11T12:04:17.801Z,96.3
2023-05-11T12:05:16.885Z,96.4
2023-05-11T12:06:17.501Z,96.6
2023-05-11T12:07:17.117Z,96.6
2023-05-11T12:08:16.765Z,97.0
2023-05-11T12:09:17.346Z,97.5
2023-05-11T12:10:16.982Z,97.6
2023-05-11T12:11:16.684Z,97.6
2023-05-11T12:12:16.597Z,97.5
2023-05-11T12:13:17.160Z,97.9
2023-05-11T12:14:16.756Z,97.9
2023-05-11T12:15:17.639Z,98.0
2023-05-11T12:16:17.507Z,97.9
2023-05-11T12:17:17.101Z,97.9
2023-05-11T12:18:16.751Z,97.7
2023-05-11T12:19:17.491Z,97.6
2023-05-11T12:20:17.064Z,97.3
2023-05-11T12:21:16.689Z,97.2
2023-05-11T12:22:16.632Z,97.2
2023-05-11T12:23:17.310Z,97.1
2023-05-11T12:24:16.893Z,97.1
2023-05-11T12:25:18.812Z,97.0
2023-05-11T12:26:16.739Z,96.8
2023-05-11T12:27:17.285Z,96.7
2023-05-11T12:28:16.882Z,96.7
2023-05-11T12:29:17.461Z,96.5
2023-05-11T12:30:17.079Z,96.2
2023-05-11T12:31:16.711Z,96.3
2023-05-11T12:32:17.590Z,96.3
2023-05-11T12:33:17.326Z,96.4
2023-05-11T12:34:16.971Z,96.4
2023-05-11T12:35:17.065Z,96.2
2023-05-11T12:36:16.779Z,96.5
2023-05-11T12:37:17.361Z,96.6
2023-05-11T12:38:16.942Z,96.5
2023-05-11T12:39:17.493Z,96.5
2023-05-11T12:40:18.134Z,96.5
2023-05-11T12:41:16.699Z,96.7
2023-05-11T12:42:17.215Z,96.5
2023-05-11T12:43:16.738Z,96.6
2023-05-11T12:44:17.344Z,97.0
2023-05-11T12:45:17.407Z,97.2
2023-05-11T12:46:17.229Z,97.6
2023-05-11T12:47:16.797Z,97.8
2023-05-11T12:48:17.424Z,97.9
2023-05-11T12:49:17.158Z,98.1
2023-05-11T12:50:16.825Z,98.1
2023-05-11T12:51:17.404Z,98.1
2023-05-11T12:52:16.605Z,98.4
2023-05-11T12:53:17.163Z,98.5
2023-05-11T12:54:16.739Z,98.4
2023-05-11T12:55:17.715Z,98.4
2023-05-11T12:56:17.472Z,98.4
2023-05-11T12:57:17.020Z,98.4
2023-05-11T12:58:16.620Z,98.4
2023-05-11T12:59:17.551Z,98.5
2023-05-11T13:00:18.099Z,98.4
2023-05-11T13:01:17.171Z,98.3
2023-05-11T13:02:17.435Z,98.3
2023-05-11T13:03:17.235Z,98.3
2023-05-11T13:04:16.921Z,98.3
2023-05-11T13:05:17.951Z,98.2
2023-05-11T13:06:16.600Z,98.2
2023-05-11T13:07:17.190Z,98.0
2023-05-11T13:08:16.783Z,97.9
2023-05-11T13:09:17.348Z,97.9
2023-05-11T13:10:16.898Z,97.9
2023-05-11T13:11:17.463Z,97.9
2023-05-11T13:12:17.411Z,97.6
2023-05-11T13:13:17.053Z,97.6
2023-05-11T13:14:16.848Z,97.6
2023-05-11T13:15:16.915Z,97.7
2023-05-11T13:16:16.622Z,97.8
2023-05-11T13:17:17.268Z,97.6
2023-05-11T13:18:16.961Z,97.7
2023-05-11T13:19:16.558Z,97.7